createdAt,value
2022-09-28T00:00:45.930Z,13.97
2022-09-28T00:03:48.192Z,13.52
2022-09-28T00:06:50.014Z,14.05
2022-09-28T00:09:52.009Z,14.26
2022-09-28T00:12:55.507Z,13.83
2022-09-28T00:16:01.529Z,14.01
2022-09-28T00:19:03.525Z,13.26
2022-09-28T00:22:05.566Z,13.81
2022-09-28T00:25:07.667Z,13.67
2022-09-28T00:28:09.636Z,13.00
2022-09-28T00:31:11.500Z,12.99
2022-09-28T00:34:13.466Z,12.67
2022-09-28T00:37:15.294Z,13.29
2022-09-28T00:40:17.191Z,13.14
2022-09-28T00:43:19.915Z,13.10
2022-09-28T00:46:31.494Z,12.90
2022-09-28T00:49:35.034Z,12.92
2022-09-28T00:52:42.896Z,12.70
2022-09-28T00:55:52.465Z,12.66
2022-09-28T00:58:54.722Z,12.77
2022-09-28T01:01:56.560Z,12.82
2022-09-28T01:04:58.420Z,12.79
2022-09-28T01:08:00.282Z,12.28
2022-09-28T01:11:02.113Z,12.62
2022-09-28T01:14:03.937Z,12.72
2022-09-28T01:17:15.891Z,13.06
2022-09-28T01:20:34.263Z,13.05
2022-09-28T01:23:39.098Z,12.63
2022-09-28T01:26:56.426Z,12.34
2022-09-28T01:29:58.574Z,12.63
2022-09-28T01:33:11.078Z,13.05
2022-09-28T01:36:14.223Z,12.32
2022-09-28T01:39:17.322Z,12.85
2022-09-28T01:42:21.015Z,12.56
2022-09-28T01:45:23.956Z,12.18
2022-09-28T01:48:29.173Z,12.38
2022-09-28T01:51:41.450Z,12.63
2022-09-28T01:54:44.913Z,13.19
2022-09-28T01:57:57.333Z,14.10
2022-09-28T02:01:10.036Z,13.06
2022-09-28T02:04:16.382Z,12.60
2022-09-28T02:07:23.460Z,12.06
2022-09-28T02:10:28.062Z,12.68
2022-09-28T02:13:31.785Z,12.57
2022-09-28T02:16:33.553Z,13.19
2022-09-28T02:19:35.423Z,13.73
2022-09-28T02:22:56.311Z,12.94
2022-09-28T02:26:01.929Z,13.52
2022-09-28T02:29:03.830Z,13.35
2022-09-28T02:32:05.617Z,13.64
2022-09-28T02:35:08.342Z,13.55
2022-09-28T02:38:10.769Z,14.12
2022-09-28T02:41:18.640Z,13.73
2022-09-28T02:44:23.716Z,14.85
2022-09-28T02:47:28.163Z,13.57
2022-09-28T02:50:34.121Z,13.61
2022-09-28T02:53:35.864Z,14.20
2022-09-28T02:56:49.953Z,13.26
2022-09-28T02:59:57.697Z,13.96
2022-09-28T03:03:06.479Z,14.17
2022-09-28T03:06:10.980Z,15.01
2022-09-28T03:09:28.614Z,14.89
2022-09-28T03:12:31.514Z,14.59
2022-09-28T03:15:34.635Z,13.93
2022-09-28T03:18:36.421Z,13.22
2022-09-28T03:21:38.255Z,13.52
2022-09-28T03:24:40.039Z,14.26
2022-09-28T03:27:42.101Z,13.87
2022-09-28T03:30:43.895Z,13.19
2022-09-28T03:33:45.766Z,14.41
2022-09-28T03:36:47.607Z,13.99
2022-09-28T03:39:49.391Z,13.30
2022-09-28T03:42:51.526Z,14.16
2022-09-28T03:45:57.119Z,14.40
2022-09-28T03:48:59.270Z,14.53
2022-09-28T03:52:01.144Z,13.41
2022-09-28T03:55:03.007Z,13.73
2022-09-28T03:58:04.826Z,13.54
2022-09-28T04:01:08.095Z,13.73
2022-09-28T04:04:12.117Z,14.22
2022-09-28T04:07:13.918Z,14.26
2022-09-28T04:10:15.769Z,13.99
2022-09-28T04:13:17.585Z,14.32
2022-09-28T04:16:19.677Z,14.22
2022-09-28T04:19:22.285Z,14.09
2022-09-28T04:22:24.361Z,13.12
2022-09-28T04:25:26.287Z,13.34
2022-09-28T04:28:46.777Z,13.87
2022-09-28T04:31:49.839Z,14.66
2022-09-28T04:34:51.923Z,14.43
2022-09-28T04:37:53.780Z,14.28
2022-09-28T04:40:55.572Z,14.22
2022-09-28T04:43:57.519Z,12.95
2022-09-28T04:47:02.977Z,13.34
2022-09-28T04:50:07.322Z,13.57
2022-09-28T04:53:09.228Z,13.57
2022-09-28T04:56:12.173Z,13.18
2022-09-28T04:59:14.216Z,12.87
2022-09-28T05:02:17.124Z,13.36
2022-09-28T05:05:19.014Z,12.75
2022-09-28T05:08:20.872Z,12.34
2022-09-28T05:11:22.823Z,12.71
2022-09-28T05:14:24.748Z,12.88
2022-09-28T05:17:26.585Z,12.57
2022-09-28T05:20:28.556Z,12.13
2022-09-28T05:23:30.607Z,13.25
2022-09-28T05:26:32.477Z,13.60
2022-09-28T05:29:34.353Z,14.00
2022-09-28T05:32:39.802Z,13.44
2022-09-28T05:35:41.805Z,14.04
2022-09-28T05:38:43.665Z,13.78
2022-09-28T05:41:45.565Z,15.70
2022-09-28T05:44:47.411Z,15.61
2022-09-28T05:47:49.496Z,17.20
2022-09-28T05:50:52.435Z,18.41
2022-09-28T05:53:55.611Z,19.12
2022-09-28T05:56:57.643Z,18.12
2022-09-28T05:59:59.567Z,17.78
2022-09-28T06:03:05.497Z,19.63
2022-09-28T06:06:10.546Z,20.37
2022-09-28T06:09:12.504Z,19.88
2022-09-28T06:12:16.013Z,21.42
2022-09-28T06:15:17.868Z,21.14
2022-09-28T06:18:19.869Z,22.29
2022-09-28T06:21:21.664Z,21.14
2022-09-28T06:24:23.576Z,23.12
2022-09-28T06:27:25.374Z,22.01
2022-09-28T06:30:28.028Z,20.94
2022-09-28T06:33:30.289Z,20.98
2022-09-28T06:36:32.177Z,22.66
2022-09-28T06:39:34.003Z,21.96
2022-09-28T06:42:36.027Z,21.97
2022-09-28T06:45:38.536Z,21.30
2022-09-28T06:48:41.050Z,22.59
2022-09-28T06:51:42.952Z,23.41
2022-09-28T06:54:44.971Z,22.94
2022-09-28T06:57:46.948Z,21.47
2022-09-28T07:00:50.344Z,20.94
2022-09-28T07:03:55.530Z,22.18
2022-09-28T07:07:01.487Z,22.48
2022-09-28T07:10:05.793Z,21.63
2022-09-28T07:13:13.339Z,24.11
2022-09-28T07:16:22.751Z,24.81
2022-09-28T07:19:27.685Z,21.61
2022-09-28T07:22:40.398Z,23.59
2022-09-28T07:25:47.958Z,22.52
2022-09-28T07:28:50.119Z,24.72
2022-09-28T07:31:53.340Z,21.77
2022-09-28T07:34:58.868Z,20.62
2022-09-28T07:38:03.409Z,22.97
2022-09-28T07:41:11.897Z,23.31
2022-09-28T07:44:13.870Z,24.72
2022-09-28T07:47:15.850Z,23.44
2022-09-28T07:50:20.781Z,21.91
2022-09-28T07:53:23.370Z,19.82
2022-09-28T07:56:25.374Z,19.00
2022-09-28T07:59:27.231Z,20.88
2022-09-28T08:02:31.176Z,18.42
2022-09-28T08:05:36.109Z,17.90
2022-09-28T08:08:38.372Z,18.56
2022-09-28T08:11:40.368Z,18.18
2022-09-28T08:14:42.368Z,18.78
2022-09-28T08:17:46.287Z,19.06
2022-09-28T08:21:06.916Z,18.13
2022-09-28T08:24:09.061Z,18.01
2022-09-28T08:27:11.320Z,18.07
2022-09-28T08:30:13.252Z,17.97
2022-09-28T08:33:15.632Z,18.02
2022-09-28T08:36:17.481Z,16.76
2022-09-28T08:39:19.375Z,17.70
2022-09-28T08:42:39.853Z,17.72
2022-09-28T08:45:41.821Z,17.89
2022-09-28T08:52:28.387Z,17.84
2022-09-28T08:55:31.402Z,17.39
2022-09-28T08:58:34.201Z,18.25
2022-09-28T09:01:38.489Z,18.39
2022-09-28T09:04:40.389Z,17.79
2022-09-28T09:08:00.826Z,17.89
2022-09-28T09:11:21.264Z,18.41
2022-09-28T09:14:23.097Z,17.67
2022-09-28T09:17:32.439Z,17.76
2022-09-28T09:20:53.120Z,17.63
2022-09-28T09:23:55.577Z,18.46
2022-09-28T09:27:14.709Z,18.72
2022-09-28T09:30:19.891Z,20.71
2022-09-28T09:33:24.179Z,22.13
2022-09-28T09:36:29.700Z,23.82
2022-09-28T09:39:37.431Z,22.62
2022-09-28T09:42:58.218Z,23.20
2022-09-28T09:46:00.068Z,21.68
2022-09-28T09:49:05.319Z,21.47
2022-09-28T09:52:10.328Z,21.47
2022-09-28T09:55:16.346Z,23.04
2022-09-28T09:58:19.767Z,24.99
2022-09-28T10:01:23.543Z,24.59
2022-09-28T10:04:32.527Z,23.71
2022-09-28T10:07:43.264Z,23.76
2022-09-28T10:10:49.656Z,22.41
2022-09-28T10:13:52.170Z,21.60
2022-09-28T10:16:55.792Z,21.03
2022-09-28T10:19:57.753Z,20.45
2022-09-28T10:23:02.373Z,20.14
2022-09-28T10:26:04.697Z,19.88
2022-09-28T10:29:14.665Z,20.82
2022-09-28T10:32:21.163Z,20.26
2022-09-28T10:35:24.353Z,20.05
2022-09-28T10:38:26.268Z,19.72
2022-09-28T10:41:28.258Z,19.88
2022-09-28T10:44:30.723Z,19.77
2022-09-28T10:47:32.852Z,20.98
2022-09-28T10:50:37.740Z,20.50
2022-09-28T10:53:39.756Z,20.23
2022-09-28T10:56:41.996Z,20.18
2022-09-28T10:59:44.256Z,19.45
2022-09-28T11:02:46.138Z,19.37
2022-09-28T11:06:04.211Z,19.62
2022-09-28T11:09:07.686Z,19.82
2022-09-28T11:12:13.499Z,19.16
2022-09-28T11:15:33.644Z,18.85
2022-09-28T11:18:35.654Z,18.92
2022-09-28T11:21:42.295Z,19.41
2022-09-28T11:24:44.286Z,19.93
2022-09-28T11:27:51.897Z,20.36
2022-09-28T11:30:54.040Z,20.74
2022-09-28T11:34:06.472Z,21.03
2022-09-28T11:37:11.564Z,20.63
2022-09-28T11:40:16.638Z,20.69
2022-09-28T11:43:33.270Z,19.50
2022-09-28T11:46:37.923Z,19.54
2022-09-28T11:49:41.742Z,20.22
2022-09-28T11:52:46.184Z,20.16
2022-09-28T11:55:55.849Z,19.93
2022-09-28T11:58:59.075Z,19.72
2022-09-28T12:02:03.978Z,20.16
2022-09-28T12:05:19.856Z,19.90
2022-09-28T12:08:30.158Z,19.54
2022-09-28T12:11:34.379Z,19.42
2022-09-28T12:14:40.146Z,19.60
2022-09-28T12:17:53.262Z,19.51
2022-09-28T12:21:04.474Z,20.28
2022-09-28T12:24:15.578Z,19.34
2022-09-28T12:27:18.605Z,19.40
2022-09-28T12:30:21.286Z,19.76
2022-09-28T12:33:25.392Z,19.56
2022-09-28T12:36:28.657Z,20.19
2022-09-28T12:39:57.105Z,19.64
2022-09-28T12:43:05.673Z,19.44
2022-09-28T12:46:12.676Z,19.62
2022-09-28T12:52:58.125Z,19.05
2022-09-28T12:56:06.089Z,18.65
2022-09-28T12:59:20.117Z,20.49
2022-09-28T13:02:31.324Z,21.05
2022-09-28T13:05:36.127Z,21.95
2022-09-28T13:08:41.787Z,22.76
2022-09-28T13:11:47.447Z,24.95
2022-09-28T13:14:53.186Z,24.35
2022-09-28T13:18:01.825Z,26.46
2022-09-28T13:21:06.467Z,27.13
2022-09-28T13:24:31.047Z,26.09
2022-09-28T13:27:37.630Z,28.23
2022-09-28T13:30:39.579Z,26.81
2022-09-28T13:33:42.911Z,24.41
2022-09-28T13:36:48.153Z,21.07
2022-09-28T13:39:56.421Z,20.58
2022-09-28T13:43:07.821Z,20.05
2022-09-28T13:46:11.651Z,20.26
2022-09-28T13:49:17.324Z,19.48
2022-09-28T13:52:28.236Z,19.29
2022-09-28T13:55:34.994Z,19.49
2022-09-28T13:58:38.834Z,19.70
2022-09-28T14:02:06.541Z,19.42
2022-09-28T14:05:21.429Z,19.82
2022-09-28T14:08:25.962Z,19.92
2022-09-28T14:11:27.865Z,19.71
2022-09-28T14:14:51.524Z,19.58
2022-09-28T14:17:54.548Z,19.95
2022-09-28T14:21:02.126Z,19.02
2022-09-28T14:24:06.729Z,19.31
2022-09-28T14:27:11.649Z,18.91
2022-09-28T14:30:13.587Z,18.86
2022-09-28T14:33:39.487Z,18.92
2022-09-28T14:37:01.153Z,19.39
2022-09-28T14:40:49.887Z,19.08
2022-09-28T14:44:01.061Z,18.80
2022-09-28T14:47:21.638Z,19.07
2022-09-28T14:50:24.762Z,18.51
2022-09-28T14:53:26.725Z,18.67
2022-09-28T14:56:32.611Z,19.04
2022-09-28T14:59:40.654Z,18.60
2022-09-28T15:02:42.505Z,18.50
2022-09-28T15:05:47.142Z,18.69
2022-09-28T15:08:49.175Z,18.37
2022-09-28T15:11:55.521Z,18.44
2022-09-28T15:15:02.314Z,18.77
2022-09-28T15:18:19.439Z,18.67
2022-09-28T15:21:21.525Z,19.03
2022-09-28T15:24:23.877Z,19.11
2022-09-28T15:27:25.903Z,18.58
2022-09-28T15:30:32.055Z,18.96
2022-09-28T15:33:52.737Z,18.44
2022-09-28T15:36:56.464Z,18.39
2022-09-28T15:39:58.320Z,18.33
2022-09-28T15:43:00.311Z,18.19
2022-09-28T15:46:11.388Z,18.10
2022-09-28T15:49:23.328Z,18.74
2022-09-28T15:52:34.239Z,18.95
2022-09-28T15:55:37.865Z,18.58
2022-09-28T15:58:39.841Z,18.74
2022-09-28T16:01:45.554Z,18.52
2022-09-28T16:04:51.768Z,18.21
2022-09-28T16:07:56.046Z,18.71
2022-09-28T16:11:17.118Z,19.39
2022-09-28T16:14:19.808Z,19.09
2022-09-28T16:17:32.711Z,19.29
2022-09-28T16:20:35.597Z,19.09
2022-09-28T16:23:37.525Z,18.75
2022-09-28T16:26:39.374Z,19.02
2022-09-28T16:29:42.089Z,19.29
2022-09-28T16:32:56.526Z,19.24
2022-09-28T16:36:01.849Z,19.29
2022-09-28T16:39:03.758Z,18.72
2022-09-28T16:42:07.862Z,18.99
2022-09-28T16:45:10.292Z,18.99
2022-09-28T16:48:19.282Z,18.95
2022-09-28T16:51:22.089Z,19.03
2022-09-28T16:54:43.161Z,19.02
2022-09-28T16:57:45.444Z,18.83
2022-09-28T17:00:47.242Z,19.16
2022-09-28T17:03:50.229Z,18.94
2022-09-28T17:06:54.273Z,18.83
2022-09-28T17:09:56.143Z,19.04
2022-09-28T17:12:57.925Z,19.19
2022-09-28T17:16:01.893Z,18.43
2022-09-28T17:19:05.662Z,18.45
2022-09-28T17:22:08.503Z,18.59
2022-09-28T17:25:12.732Z,18.69
2022-09-28T17:28:19.495Z,18.12
2022-09-28T17:31:21.353Z,18.66
2022-09-28T17:34:23.814Z,18.17
2022-09-28T17:37:25.640Z,17.80
2022-09-28T17:40:28.425Z,18.97
2022-09-28T17:43:30.469Z,19.02
2022-09-28T17:46:33.322Z,18.47
2022-09-28T17:49:35.242Z,18.20
2022-09-28T17:52:38.508Z,18.28
2022-09-28T17:55:40.472Z,17.67
2022-09-28T17:58:42.316Z,16.92
2022-09-28T18:01:44.272Z,17.17
2022-09-28T18:04:52.202Z,16.75
2022-09-28T18:07:54.757Z,17.30
2022-09-28T18:10:56.971Z,17.00
2022-09-28T18:13:59.015Z,17.32
2022-09-28T18:17:00.812Z,17.07
2022-09-28T18:20:02.654Z,17.32
2022-09-28T18:23:04.507Z,16.70
2022-09-28T18:26:13.136Z,17.35
2022-09-28T18:29:16.854Z,16.91
2022-09-28T18:32:18.729Z,16.73
2022-09-28T18:35:22.945Z,16.47
2022-09-28T18:38:25.373Z,16.73
2022-09-28T18:41:27.309Z,16.45
2022-09-28T18:44:29.111Z,16.17
2022-09-28T18:47:31.070Z,17.61
2022-09-28T18:50:33.201Z,17.91
2022-09-28T18:53:35.444Z,17.26
2022-09-28T18:56:38.113Z,17.50
2022-09-28T18:59:40.073Z,17.62
2022-09-28T19:02:42.367Z,17.15
2022-09-28T19:05:44.282Z,17.30
2022-09-28T19:08:51.099Z,16.31
2022-09-28T19:11:52.939Z,16.12
2022-09-28T19:14:54.837Z,16.05
2022-09-28T19:17:57.198Z,16.39
2022-09-28T19:21:01.822Z,16.61
2022-09-28T19:24:04.068Z,17.26
2022-09-28T19:27:05.886Z,16.89
2022-09-28T19:30:08.055Z,16.65
2022-09-28T19:33:09.894Z,16.53
2022-09-28T19:36:12.541Z,16.80
2022-09-28T19:39:14.803Z,16.61
2022-09-28T19:42:16.640Z,15.59
2022-09-28T19:45:18.694Z,15.93
2022-09-28T19:48:26.446Z,16.24
2022-09-28T19:51:28.888Z,16.06
2022-09-28T19:54:36.335Z,15.80
2022-09-28T19:57:38.425Z,16.74
2022-09-28T20:00:42.610Z,16.53
2022-09-28T20:03:44.393Z,16.28
2022-09-28T20:06:48.439Z,16.83
2022-09-28T20:09:50.253Z,17.12
2022-09-28T20:12:52.090Z,16.73
2022-09-28T20:15:53.999Z,16.36
2022-09-28T20:18:58.354Z,16.64
2022-09-28T20:22:03.147Z,16.49
2022-09-28T20:25:05.447Z,16.75
2022-09-28T20:28:07.340Z,16.77
2022-09-28T20:31:10.471Z,16.59
2022-09-28T20:34:12.538Z,15.88
2022-09-28T20:37:17.215Z,16.50
2022-09-28T20:40:19.599Z,16.33
2022-09-28T20:43:21.486Z,16.63
2022-09-28T20:46:24.031Z,16.41
2022-09-28T20:49:27.989Z,16.10
2022-09-28T20:52:29.838Z,15.75
2022-09-28T20:55:31.637Z,16.38
2022-09-28T20:58:34.226Z,17.29
2022-09-28T21:01:36.079Z,17.15
2022-09-28T21:04:38.025Z,15.27
2022-09-28T21:07:39.835Z,15.83
2022-09-28T21:10:44.768Z,16.51
2022-09-28T21:13:46.833Z,16.26
2022-09-28T21:16:48.625Z,16.42
2022-09-28T21:19:50.427Z,16.02
2022-09-28T21:22:52.251Z,16.30
2022-09-28T21:26:04.252Z,16.00
2022-09-28T21:29:06.964Z,15.72
2022-09-28T21:32:09.123Z,16.22
2022-09-28T21:35:10.952Z,15.78
2022-09-28T21:38:12.749Z,16.98
2022-09-28T21:41:14.895Z,16.21
2022-09-28T21:44:16.769Z,15.97
2022-09-28T21:47:18.608Z,16.52
2022-09-28T21:50:22.634Z,17.28
2022-09-28T21:53:29.033Z,17.14
2022-09-28T21:56:30.802Z,17.15
2022-09-28T21:59:32.602Z,16.76
2022-09-28T22:02:35.382Z,16.42
2022-09-28T22:05:37.185Z,16.19
2022-09-28T22:08:39.156Z,16.22
2022-09-28T22:11:40.969Z,16.09
2022-09-28T22:14:42.864Z,16.35
2022-09-28T22:17:44.973Z,16.33
2022-09-28T22:20:46.802Z,16.24
2022-09-28T22:23:48.632Z,16.17
2022-09-28T22:26:50.469Z,15.96
2022-09-28T22:29:52.380Z,15.87
2022-09-28T22:32:54.184Z,15.48
2022-09-28T22:35:56.112Z,16.27
2022-09-28T22:38:58.247Z,15.56
2022-09-28T22:42:00.153Z,16.57
2022-09-28T22:45:02.049Z,16.49
2022-09-28T22:48:03.972Z,17.12
2022-09-28T22:51:06.597Z,17.11
2022-09-28T22:54:08.396Z,16.63
2022-09-28T22:57:10.243Z,16.99
2022-09-28T23:00:12.318Z,16.78
2022-09-28T23:03:14.228Z,15.95
2022-09-28T23:06:16.670Z,16.59
2022-09-28T23:09:18.754Z,17.24
2022-09-28T23:12:20.658Z,16.33
2022-09-28T23:15:22.645Z,15.36
2022-09-28T23:18:24.700Z,16.18
2022-09-28T23:21:26.894Z,15.48
2022-09-28T23:24:28.719Z,15.55
2022-09-28T23:27:30.571Z,15.45
2022-09-28T23:30:32.425Z,15.78
2022-09-28T23:33:34.523Z,16.46
2022-09-28T23:36:36.339Z,16.15
2022-09-28T23:39:38.147Z,15.58
2022-09-28T23:42:39.962Z,16.36
2022-09-28T23:45:45.404Z,15.89
2022-09-28T23:48:47.188Z,16.36
2022-09-28T23:51:48.990Z,15.82
2022-09-28T23:54:50.830Z,17.26
2022-09-28T23:57:55.584Z,17.33
